Terminal Aerodrome Forecast
Issued by NWS

Home | Current Version | Previous Version | Text Only | Print | Product List | Glossary On
Versions: 1 2 3 4 5 6 7 8 9 10 11 12 13 14 15 16 17 18 19 20 21 22
000
FTUS43 KLSX 251700
TAFUIN
TAF
KUIN 251729Z 2518/2618 13007KT P6SM SCT080 BKN250
     FM252100 08008KT P6SM BKN080
     FM260100 07010KT 2SM -SN OVC012
     FM260300 05012G20KT 1SM -SN OVC008
     FM260900 36015G25KT 3SM -SN OVC012=

USA.gov is the U.S. government's official web portal to all federal, state and local government web resources and services.